Time;durP1;ratioP1;P1;durP2;ratioP2;P2;SDS_P1;SDS_P2;PMS_P1;PMS_P2;Temp;Humidity;BMP_temperature;BMP_pressure;BME280_temperature;BME280_humidity;BME280_pressure;Samples;Min_cycle;Max_cycle;Signal;HPM_P1;HPM_P2
2021/07/20 00:00:32;;;;;;;8.87;7.57;;;18.60;99.90;;;;;;4936526;29;20607;-85
2021/07/20 00:02:58;;;;;;;10.03;8.40;;;18.60;99.90;;;;;;4952210;29;20212;-86
2021/07/20 00:05:28;;;;;;;10.17;8.07;;;18.60;99.90;;;;;;4956743;28;20711;-86
2021/07/20 00:08:00;;;;;;;10.70;7.23;;;18.50;99.90;;;;;;4957411;28;20559;-86
2021/07/20 00:10:34;;;;;;;8.53;7.03;;;18.50;99.90;;;;;;4962573;29;20563;-85
2021/07/20 00:13:00;;;;;;;8.63;6.50;;;18.50;99.90;;;;;;4957537;28;20596;-85
2021/07/20 00:15:27;;;;;;;9.70;8.03;;;18.40;99.90;;;;;;4957330;29;20571;-85
2021/07/20 00:17:56;;;;;;;10.93;7.07;;;18.40;99.90;;;;;;4957294;28;20572;-85
2021/07/20 00:20:24;;;;;;;10.10;7.90;;;18.40;99.90;;;;;;4955981;29;20575;-85
2021/07/20 00:22:50;;;;;;;8.80;7.83;;;18.40;99.90;;;;;;4957060;28;20644;-85
2021/07/20 00:25:16;;;;;;;8.63;7.20;;;18.40;99.90;;;;;;4956035;29;20572;-85
2021/07/20 00:27:43;;;;;;;10.43;7.77;;;18.30;99.90;;;;;;4955849;29;20635;-85
2021/07/20 00:30:11;;;;;;;8.80;7.83;;;18.30;99.90;;;;;;4956996;28;20675;-85
2021/07/20 00:32:40;;;;;;;10.30;7.40;;;18.20;99.90;;;;;;4939918;29;20614;-85
2021/07/20 00:35:08;;;;;;;12.43;7.10;;;18.20;99.90;;;;;;4956082;29;20933;-85
2021/07/20 00:37:35;;;;;;;11.57;7.47;;;18.20;99.90;;;;;;4956907;29;20583;-85
2021/07/20 00:40:02;;;;;;;9.03;7.80;;;18.20;99.90;;;;;;4956105;29;20572;-85
2021/07/20 00:42:28;;;;;;;9.37;7.57;;;18.20;99.90;;;;;;4955807;29;20983;-85
2021/07/20 00:44:54;;;;;;;8.10;6.87;;;18.20;99.90;;;;;;4957082;28;20555;-85
2021/07/20 00:47:21;;;;;;;10.37;8.47;;;18.10;99.90;;;;;;4960877;29;20507;-85
2021/07/20 00:49:47;;;;;;;8.73;7.70;;;18.10;99.90;;;;;;4955662;29;20571;-85
2021/07/20 00:52:13;;;;;;;9.40;7.90;;;18.10;99.90;;;;;;4955609;28;20611;-85
2021/07/20 00:54:39;;;;;;;9.90;7.80;;;18.10;99.90;;;;;;4957029;28;20946;-85
2021/07/20 00:57:09;;;;;;;8.73;6.40;;;18.00;99.90;;;;;;4955590;29;20576;-85
2021/07/20 00:59:38;;;;;;;7.67;6.97;;;18.00;99.90;;;;;;4955426;29;20594;-84
2021/07/20 01:02:05;;;;;;;10.30;7.53;;;18.00;99.90;;;;;;4955481;29;20627;-85
2021/07/20 01:04:32;;;;;;;9.13;7.70;;;18.00;99.90;;;;;;4955449;29;20635;-84
2021/07/20 01:06:59;;;;;;;11.03;7.70;;;17.90;99.90;;;;;;4957006;28;20622;-85
2021/07/20 01:09:28;;;;;;;10.80;8.10;;;17.90;99.90;;;;;;4956729;28;20583;-85
2021/07/20 01:11:55;;;;;;;10.37;8.03;;;17.90;99.90;;;;;;4956704;28;21011;-84
2021/07/20 01:14:23;;;;;;;8.93;7.27;;;17.90;99.90;;;;;;4939582;29;20586;-84
2021/07/20 01:16:50;;;;;;;9.30;8.27;;;17.90;99.90;;;;;;4955765;28;20623;-84
2021/07/20 01:19:17;;;;;;;10.77;8.27;;;17.80;99.90;;;;;;4955348;29;20564;-84
2021/07/20 01:21:46;;;;;;;9.50;8.03;;;17.80;99.90;;;;;;4956004;28;20618;-84
2021/07/20 01:24:17;;;;;;;8.40;6.90;;;17.80;99.90;;;;;;4960495;28;20920;-84
2021/07/20 01:26:46;;;;;;;9.33;7.33;;;17.80;99.90;;;;;;4955035;29;20929;-84
2021/07/20 01:29:13;;;;;;;10.50;7.70;;;17.80;99.90;;;;;;4955052;29;21031;-84
2021/07/20 01:31:43;;;;;;;9.60;6.93;;;17.70;99.90;;;;;;4954852;29;21030;-84
2021/07/20 01:34:13;;;;;;;7.53;6.70;;;17.70;99.90;;;;;;4955241;29;20698;-84
2021/07/20 01:36:45;;;;;;;9.40;7.47;;;17.70;99.90;;;;;;4954749;29;20587;-84
2021/07/20 01:39:15;;;;;;;9.00;8.07;;;17.70;99.90;;;;;;4939463;29;20572;-84
2021/07/20 01:41:41;;;;;;;10.90;7.60;;;17.60;99.90;;;;;;4954741;29;20646;-84
2021/07/20 01:44:14;;;;;;;9.37;7.17;;;17.60;99.90;;;;;;4954891;29;20670;-84
2021/07/20 01:46:47;;;;;;;7.90;7.10;;;17.60;99.90;;;;;;4955975;29;21240;-84
2021/07/20 01:49:17;;;;;;;9.23;7.00;;;17.60;99.90;;;;;;4956179;29;20942;-84
2021/07/20 01:51:46;;;;;;;8.73;7.60;;;17.60;99.90;;;;;;4954559;29;20679;-84
2021/07/20 01:54:17;;;;;;;8.87;7.70;;;17.50;99.90;;;;;;4954674;29;20568;-85
2021/07/20 01:56:46;;;;;;;11.10;8.20;;;17.50;99.90;;;;;;4955043;29;21108;-85
2021/07/20 01:59:12;;;;;;;10.53;7.70;;;17.50;99.90;;;;;;4955552;29;20615;-83
2021/07/20 02:01:58;;;;;;;8.87;7.90;;;17.50;99.90;;;;;;4959811;28;20985;-83
2021/07/20 02:10:08;;;;;;;8.97;7.50;;;17.40;99.90;;;;;;4954612;29;20575;-84
2021/07/20 02:12:56;;;;;;;9.90;8.57;;;17.30;99.90;;;;;;4955551;28;20608;-84
2021/07/20 02:15:46;;;;;;;8.90;7.60;;;17.30;99.90;;;;;;4954377;29;20585;-84
2021/07/20 02:18:28;;;;;;;9.60;6.90;;;17.20;99.90;;;;;;4958634;28;21151;-84
2021/07/20 02:21:00;;;;;;;10.10;7.33;;;17.20;99.90;;;;;;4958072;29;20572;-84
2021/07/20 02:23:36;;;;;;;10.77;7.97;;;17.20;99.90;;;;;;4960479;29;20595;-84
2021/07/20 02:26:04;;;;;;;7.63;6.80;;;17.10;99.90;;;;;;4958519;29;21146;-85
2021/07/20 02:28:31;;;;;;;9.63;7.20;;;17.10;99.90;;;;;;4956639;28;20667;-84
2021/07/20 02:31:00;;;;;;;8.47;6.93;;;17.10;99.90;;;;;;4956618;29;20630;-84
2021/07/20 02:33:29;;;;;;;8.70;7.80;;;17.00;99.90;;;;;;4964622;29;20990;-85
2021/07/20 02:35:57;;;;;;;10.57;7.77;;;17.00;99.90;;;;;;4961809;29;20564;-84
2021/07/20 02:38:29;;;;;;;10.53;6.70;;;17.00;99.90;;;;;;4962459;29;20578;-85
2021/07/20 02:40:58;;;;;;;8.60;7.10;;;16.90;99.90;;;;;;4961297;28;20568;-85
2021/07/20 02:43:26;;;;;;;8.33;6.90;;;16.90;99.90;;;;;;4956782;29;20592;-84
2021/07/20 02:45:54;;;;;;;9.77;7.20;;;16.90;99.90;;;;;;4954474;29;21132;-84
2021/07/20 02:48:23;;;;;;;10.00;8.23;;;16.80;99.90;;;;;;4953454;29;21151;-84
2021/07/20 02:50:51;;;;;;;11.50;7.60;;;16.80;99.90;;;;;;4955024;29;21074;-84
2021/07/20 02:53:24;;;;;;;8.87;7.00;;;16.70;99.90;;;;;;4975977;29;20623;-84
2021/07/20 02:55:55;;;;;;;11.20;7.50;;;16.70;99.90;;;;;;4975995;29;20631;-84
2021/07/20 02:58:24;;;;;;;9.83;7.23;;;16.70;99.90;;;;;;4974914;29;20981;-84
2021/07/20 03:00:56;;;;;;;10.23;7.63;;;16.60;99.90;;;;;;4964225;29;20580;-85
2021/07/20 03:03:21;;;;;;;10.17;7.97;;;16.60;99.90;;;;;;4956228;28;20204;-84
2021/07/20 03:05:53;;;;;;;10.70;7.90;;;16.60;99.90;;;;;;4956288;29;20582;-84
2021/07/20 03:08:28;;;;;;;8.50;7.37;;;16.50;99.90;;;;;;4958352;29;20580;-84
2021/07/20 03:11:04;;;;;;;9.47;7.30;;;16.50;99.90;;;;;;4953266;29;20568;-84
2021/07/20 03:13:34;;;;;;;9.90;8.00;;;16.50;99.90;;;;;;4953483;29;20695;-84
2021/07/20 03:16:04;;;;;;;13.33;7.50;;;16.50;99.90;;;;;;4959344;28;20967;-84
2021/07/20 03:18:32;;;;;;;10.67;7.83;;;16.50;99.90;;;;;;4953895;29;20568;-84
2021/07/20 03:21:00;;;;;;;8.77;6.97;;;16.50;99.90;;;;;;4954795;29;20603;-84
2021/07/20 03:23:30;;;;;;;10.23;7.33;;;16.40;99.90;;;;;;4955260;28;21077;-84
2021/07/20 03:25:58;;;;;;;10.63;7.50;;;16.50;99.90;;;;;;4956828;29;20567;-84
2021/07/20 03:28:25;;;;;;;8.90;8.00;;;16.40;99.90;;;;;;4955451;28;20628;-83
2021/07/20 03:30:53;;;;;;;8.97;6.60;;;16.40;99.90;;;;;;4954161;29;20960;-83
2021/07/20 03:33:23;;;;;;;11.40;7.50;;;16.40;99.90;;;;;;4953995;28;20949;-83
2021/07/20 03:35:59;;;;;;;9.23;7.23;;;16.40;99.90;;;;;;4953502;29;20574;-82
2021/07/20 03:38:28;;;;;;;11.87;8.57;;;16.30;99.90;;;;;;4953490;28;20574;-82
2021/07/20 03:41:00;;;;;;;9.60;7.70;;;16.30;99.90;;;;;;4953617;28;20564;-83
2021/07/20 03:43:29;;;;;;;10.20;7.40;;;16.30;99.90;;;;;;4952512;29;20592;-82
2021/07/20 03:45:56;;;;;;;8.97;6.93;;;16.30;99.90;;;;;;4953706;28;20572;-83
2021/07/20 03:48:23;;;;;;;14.20;8.87;;;16.30;99.90;;;;;;4952776;29;20982;-82
2021/07/20 03:50:54;;;;;;;9.70;6.97;;;16.30;99.90;;;;;;4954867;29;20580;-82
2021/07/20 03:53:22;;;;;;;10.23;8.40;;;16.20;99.90;;;;;;4954759;29;20627;-83
2021/07/20 03:55:54;;;;;;;10.40;7.63;;;16.20;99.90;;;;;;4952491;29;20747;-82
2021/07/20 03:58:20;;;;;;;9.80;7.67;;;16.20;99.90;;;;;;4952474;29;21172;-82
2021/07/20 04:00:49;;;;;;;11.47;8.63;;;16.20;99.90;;;;;;4953380;28;20653;-82
2021/07/20 04:03:24;;;;;;;8.70;6.80;;;16.20;99.90;;;;;;4952322;29;20680;-81
2021/07/20 04:06:22;;;;;;;9.43;7.73;;;16.20;99.90;;;;;;4940251;29;20597;-82
2021/07/20 04:09:10;;;;;;;12.10;8.43;;;16.20;99.90;;;;;;4953296;29;20982;-81
2021/07/20 04:11:55;;;;;;;12.83;7.90;;;16.20;99.90;;;;;;4952922;29;20597;-82
2021/07/20 04:14:28;;;;;;;10.47;6.97;;;16.20;99.90;;;;;;4952853;28;20651;-82
2021/07/20 04:16:59;;;;;;;10.80;8.13;;;16.30;99.90;;;;;;4952363;29;20616;-81
2021/07/20 04:19:25;;;;;;;11.33;7.90;;;16.30;99.90;;;;;;4953721;28;20934;-81
2021/07/20 04:22:05;;;;;;;12.13;7.37;;;16.30;99.90;;;;;;4953346;28;20591;-81
2021/07/20 04:24:32;;;;;;;13.47;8.60;;;16.30;99.90;;;;;;4952543;29;20661;-81
2021/07/20 04:27:00;;;;;;;12.33;7.30;;;16.30;99.90;;;;;;4952349;29;20615;-81
2021/07/20 04:29:28;;;;;;;13.27;7.60;;;16.40;99.90;;;;;;4957576;29;20584;-81
2021/07/20 04:31:56;;;;;;;12.10;8.83;;;16.40;99.90;;;;;;4951859;29;20596;-81
2021/07/20 04:34:23;;;;;;;13.47;8.77;;;16.50;99.90;;;;;;4953638;28;21203;-81
2021/07/20 04:37:08;;;;;;;9.50;7.83;;;16.50;99.90;;;;;;4953376;29;20575;-81
2021/07/20 04:39:38;;;;;;;10.80;8.03;;;16.60;99.90;;;;;;4952260;29;20992;-81
2021/07/20 04:42:07;;;;;;;13.60;8.50;;;16.60;99.90;;;;;;4951955;29;21110;-81
2021/07/20 04:44:37;;;;;;;9.87;8.13;;;16.70;99.90;;;;;;4951486;29;20580;-81
2021/07/20 04:47:32;;;;;;;16.60;8.70;;;16.70;99.90;;;;;;4939325;28;20608;-81
2021/07/20 04:50:07;;;;;;;10.63;8.03;;;16.70;99.90;;;;;;4951933;28;20619;-81
2021/07/20 04:52:36;;;;;;;11.73;8.40;;;16.70;99.90;;;;;;4939200;29;20726;-81
2021/07/20 04:55:04;;;;;;;10.50;7.87;;;16.80;99.90;;;;;;4957013;28;21013;-81
2021/07/20 04:57:30;;;;;;;10.70;7.60;;;16.90;99.90;;;;;;4955196;28;20592;-81
2021/07/20 04:59:57;;;;;;;15.37;8.97;;;17.00;99.90;;;;;;4955948;28;20571;-81
2021/07/20 05:02:24;;;;;;;13.67;8.67;;;17.10;99.90;;;;;;4956865;29;20635;-81
2021/07/20 05:04:55;;;;;;;12.13;8.80;;;17.20;99.90;;;;;;4944850;29;20592;-82
2021/07/20 05:07:22;;;;;;;14.23;8.53;;;17.40;99.90;;;;;;4957302;29;20961;-82
2021/07/20 05:09:53;;;;;;;15.37;9.00;;;17.50;99.90;;;;;;4956325;28;20571;-82
2021/07/20 05:12:22;;;;;;;10.27;8.20;;;17.60;99.90;;;;;;4954921;29;20626;-82
2021/07/20 05:14:57;;;;;;;9.83;8.80;;;17.60;99.90;;;;;;4955083;28;20591;-82
2021/07/20 05:17:26;;;;;;;8.57;6.93;;;17.60;99.90;;;;;;4955157;29;20582;-82
2021/07/20 05:19:52;;;;;;;12.10;9.03;;;17.60;99.90;;;;;;4956882;29;21319;-82
2021/07/20 05:22:26;;;;;;;9.67;7.30;;;17.60;99.90;;;;;;4960121;29;20659;-81
2021/07/20 05:24:54;;;;;;;10.10;7.63;;;17.80;99.90;;;;;;4958202;29;20579;-82
2021/07/20 05:27:22;;;;;;;11.87;8.73;;;17.80;99.90;;;;;;4957957;28;20988;-82
2021/07/20 05:29:50;;;;;;;9.97;7.80;;;17.80;99.90;;;;;;4957136;29;20968;-81
2021/07/20 05:32:46;;;;;;;11.73;7.63;;;17.90;99.90;;;;;;4948596;28;20627;-82
2021/07/20 05:35:20;;;;;;;10.23;8.67;;;17.90;99.90;;;;;;4956259;29;20572;-82
2021/07/20 05:37:48;;;;;;;13.33;8.90;;;18.00;99.90;;;;;;4956438;29;21428;-82
2021/07/20 05:40:18;;;;;;;11.50;8.20;;;18.00;99.90;;;;;;4956608;28;20619;-82
2021/07/20 05:42:45;;;;;;;10.50;8.03;;;18.10;99.90;;;;;;4959746;29;21011;-82
2021/07/20 05:45:25;;;;;;;9.60;8.20;;;18.20;99.90;;;;;;4954590;29;20576;-81
2021/07/20 05:47:56;;;;;;;10.70;7.83;;;18.30;99.90;;;;;;4954192;29;20579;-82
2021/07/20 05:50:23;;;;;;;9.53;8.20;;;18.40;99.90;;;;;;4954208;29;20614;-83
2021/07/20 05:53:08;;;;;;;10.33;8.83;;;18.50;99.90;;;;;;4955619;29;20658;-82
2021/07/20 05:55:36;;;;;;;9.83;7.00;;;18.60;99.90;;;;;;4954516;29;21040;-81
2021/07/20 05:58:03;;;;;;;12.60;9.70;;;18.80;99.90;;;;;;4954096;29;20579;-81
2021/07/20 06:00:30;;;;;;;10.57;9.43;;;19.10;99.90;;;;;;4955332;28;20644;-81
2021/07/20 06:03:11;;;;;;;14.87;8.93;;;19.70;99.90;;;;;;4953338;28;21062;-81
2021/07/20 06:05:37;;;;;;;10.90;9.80;;;20.40;99.90;;;;;;4954429;28;20587;-81
2021/07/20 06:08:04;;;;;;;15.40;9.67;;;21.20;99.90;;;;;;4954410;28;20937;-80
2021/07/20 06:10:30;;;;;;;11.67;7.90;;;22.10;99.90;;;;;;4963789;28;21068;-80
2021/07/20 06:12:59;;;;;;;10.13;7.60;;;23.00;99.90;;;;;;4974455;28;20974;-80
2021/07/20 06:15:26;;;;;;;10.87;8.00;;;23.80;99.90;;;;;;4974167;28;20726;-81
2021/07/20 06:17:57;;;;;;;9.70;7.53;;;24.70;99.90;;;;;;4975447;28;20933;-81
2021/07/20 06:20:23;;;;;;;9.60;7.70;;;25.50;99.90;;;;;;4976861;28;21072;-81
2021/07/20 06:22:52;;;;;;;8.10;7.10;;;26.30;99.90;;;;;;4972933;28;20635;-81
2021/07/20 06:25:24;;;;;;;8.50;7.27;;;27.00;99.90;;;;;;4976913;28;20684;-80
2021/07/20 06:27:51;;;;;;;8.20;7.17;;;27.70;99.90;;;;;;4978213;28;20688;-81
2021/07/20 06:30:18;;;;;;;9.10;8.10;;;28.30;99.90;;;;;;4972373;28;20913;-81
2021/07/20 06:32:45;;;;;;;9.70;8.33;;;28.90;99.90;;;;;;4972951;28;21043;-81
2021/07/20 06:35:15;;;;;;;9.13;8.13;;;29.50;99.90;;;;;;4954651;28;20989;-81
2021/07/20 06:37:48;;;;;;;10.17;7.00;;;29.90;99.90;;;;;;4954793;28;20579;-82
2021/07/20 06:40:18;;;;;;;8.67;7.80;;;30.40;99.90;;;;;;4954218;29;20671;-82
2021/07/20 06:42:46;;;;;;;9.27;7.53;;;30.90;99.90;;;;;;4954485;28;20737;-81
2021/07/20 06:45:16;;;;;;;9.13;7.60;;;31.30;99.90;;;;;;4953367;28;20596;-80
2021/07/20 06:47:45;;;;;;;8.87;7.90;;;31.60;99.90;;;;;;4953320;29;21009;-81
2021/07/20 06:50:15;;;;;;;7.90;7.10;;;32.00;99.90;;;;;;4954203;28;20993;-80
2021/07/20 06:52:42;;;;;;;12.07;8.23;;;32.40;99.90;;;;;;4953069;29;20619;-80
2021/07/20 06:55:10;;;;;;;8.93;8.07;;;32.80;99.90;;;;;;4956421;29;20680;-79
2021/07/20 06:57:37;;;;;;;8.17;7.37;;;33.20;99.30;;;;;;4953344;29;20581;-80
2021/07/20 07:00:07;;;;;;;8.40;7.60;;;33.50;97.80;;;;;;4957934;29;20629;-80
2021/07/20 07:02:37;;;;;;;8.60;7.80;;;33.80;96.40;;;;;;4957715;29;20654;-80
2021/07/20 07:05:04;;;;;;;8.53;7.70;;;34.10;95.40;;;;;;4959288;28;20574;-80
2021/07/20 07:07:32;;;;;;;8.50;7.70;;;34.40;94.40;;;;;;4943013;29;20610;-80
2021/07/20 07:09:59;;;;;;;10.27;8.60;;;34.60;93.50;;;;;;4954951;28;20639;-80
2021/07/20 07:12:26;;;;;;;11.10;8.30;;;34.80;92.40;;;;;;4952689;29;20627;-81
2021/07/20 07:14:53;;;;;;;14.17;8.63;;;35.00;91.40;;;;;;4952471;28;20672;-81
2021/07/20 07:17:20;;;;;;;9.93;8.53;;;35.30;90.40;;;;;;4954116;28;20572;-80
2021/07/20 07:19:49;;;;;;;11.00;8.33;;;35.40;88.20;;;;;;4954271;29;20576;-80
2021/07/20 07:22:19;;;;;;;13.53;8.97;;;35.60;85.90;;;;;;4955126;28;20720;-80
2021/07/20 07:24:45;;;;;;;8.53;7.67;;;35.80;84.40;;;;;;4958293;28;20572;-79
2021/07/20 07:27:13;;;;;;;10.03;8.70;;;36.00;83.20;;;;;;4957207;28;20575;-78
2021/07/20 07:29:39;;;;;;;9.00;8.10;;;36.20;81.20;;;;;;4961007;29;20172;-78
2021/07/20 07:32:06;;;;;;;8.80;7.90;;;36.40;79.80;;;;;;4962519;29;20595;-77
2021/07/20 07:34:31;;;;;;;9.83;8.97;;;36.60;78.00;;;;;;4955491;29;20609;-77
2021/07/20 07:36:59;;;;;;;8.87;8.07;;;36.80;76.90;;;;;;4957966;29;20603;-77
2021/07/20 07:39:26;;;;;;;8.37;7.57;;;37.00;74.70;;;;;;4960291;28;20208;-78
2021/07/20 07:41:54;;;;;;;9.20;8.13;;;37.20;73.30;;;;;;4959605;28;21306;-77
2021/07/20 07:44:23;;;;;;;7.57;6.87;;;37.30;71.60;;;;;;4960166;29;20603;-78
2021/07/20 07:46:51;;;;;;;8.77;8.00;;;37.40;70.00;;;;;;4956793;28;20592;-77
2021/07/20 07:49:18;;;;;;;7.90;7.13;;;37.60;69.30;;;;;;4958441;29;20987;-78
2021/07/20 07:51:45;;;;;;;8.80;7.90;;;37.70;68.50;;;;;;4959137;28;20919;-77
2021/07/20 07:54:13;;;;;;;9.03;8.20;;;37.90;67.60;;;;;;4961650;28;20608;-78
2021/07/20 07:56:39;;;;;;;8.87;8.10;;;38.10;66.90;;;;;;4961050;28;21018;-79
2021/07/20 07:59:08;;;;;;;7.30;6.40;;;38.30;64.30;;;;;;4960301;29;21167;-79
2021/07/20 08:01:35;;;;;;;8.43;7.40;;;38.30;62.40;;;;;;4957861;29;20639;-78
2021/07/20 08:04:01;;;;;;;7.40;6.70;;;38.40;61.80;;;;;;4967955;29;20849;-78
2021/07/20 08:06:30;;;;;;;7.87;7.17;;;38.50;61.00;;;;;;4971910;28;20619;-78
2021/07/20 08:08:59;;;;;;;7.07;6.50;;;38.50;59.90;;;;;;4969429;28;20607;-77
2021/07/20 08:11:27;;;;;;;7.50;6.90;;;38.70;59.40;;;;;;4978949;28;20591;-78
2021/07/20 08:13:57;;;;;;;7.07;6.50;;;38.80;59.30;;;;;;4991529;28;20606;-78
2021/07/20 08:16:24;;;;;;;7.87;7.07;;;39.00;58.90;;;;;;4987099;28;20587;-79
2021/07/20 08:18:51;;;;;;;7.70;7.00;;;39.10;57.90;;;;;;4983630;28;21032;-78
2021/07/20 08:21:17;;;;;;;7.47;6.80;;;39.20;57.40;;;;;;4984247;28;20594;-79
2021/07/20 08:23:46;;;;;;;7.00;6.40;;;39.20;57.00;;;;;;4985429;28;20629;-78
2021/07/20 08:26:18;;;;;;;8.07;7.37;;;39.20;56.00;;;;;;4983772;28;20571;-78
2021/07/20 08:28:51;;;;;;;7.63;6.83;;;38.80;55.40;;;;;;4987943;28;20582;-78
2021/07/20 08:31:18;;;;;;;8.57;7.20;;;38.20;54.60;;;;;;4988993;28;20583;-79
2021/07/20 08:33:45;;;;;;;10.80;7.40;;;37.50;54.20;;;;;;4984121;28;20610;-80
2021/07/20 08:36:15;;;;;;;8.30;6.97;;;37.00;55.00;;;;;;4982119;28;20571;-79
2021/07/20 08:38:44;;;;;;;7.67;6.97;;;36.60;54.30;;;;;;4984144;28;20595;-79
2021/07/20 08:41:44;;;;;;;8.63;7.23;;;36.00;54.30;;;;;;4984020;28;20583;-79
2021/07/20 08:44:32;;;;;;;7.70;6.90;;;35.20;54.80;;;;;;4966429;28;20646;-78
2021/07/20 08:47:09;;;;;;;7.60;6.80;;;34.60;55.00;;;;;;4985971;28;20576;-78
2021/07/20 08:50:09;;;;;;;7.90;7.10;;;34.40;56.10;;;;;;4984492;28;20608;-78
2021/07/20 08:52:40;;;;;;;7.40;5.87;;;34.70;57.00;;;;;;4974069;28;20962;-79
2021/07/20 08:55:11;;;;;;;7.93;6.73;;;34.80;56.90;;;;;;4984471;28;20570;-79
2021/07/20 08:58:09;;;;;;;7.83;6.70;;;35.00;57.20;;;;;;4987636;28;20648;-79
2021/07/20 09:00:38;;;;;;;6.97;6.27;;;35.40;56.00;;;;;;4968964;28;20591;-79
2021/07/20 09:03:13;;;;;;;6.30;5.80;;;36.00;57.40;;;;;;4990024;28;20673;-78
2021/07/20 09:05:50;;;;;;;6.83;5.97;;;36.20;55.90;;;;;;4991646;28;20575;-78
2021/07/20 09:08:48;;;;;;;7.00;6.33;;;36.20;55.10;;;;;;4995003;28;20575;-78
2021/07/20 09:11:29;;;;;;;7.30;6.70;;;35.80;54.00;;;;;;4977473;28;20609;-78
2021/07/20 09:14:21;;;;;;;7.10;6.43;;;35.30;53.50;;;;;;4974709;28;21027;-79
2021/07/20 09:16:51;;;;;;;7.70;6.90;;;34.70;53.20;;;;;;4980792;28;20677;-79
2021/07/20 09:19:39;;;;;;;7.30;6.60;;;34.20;53.80;;;;;;4982682;28;20585;-79
2021/07/20 09:22:13;;;;;;;6.83;6.23;;;34.30;54.70;;;;;;4983010;28;21240;-78
2021/07/20 09:25:13;;;;;;;6.97;5.87;;;34.70;55.00;;;;;;4984083;28;20657;-79
2021/07/20 09:27:50;;;;;;;7.27;6.67;;;35.00;55.40;;;;;;4982905;28;20581;-79
2021/07/20 09:30:24;;;;;;;8.30;7.50;;;35.20;54.50;;;;;;4980638;28;21004;-79
2021/07/20 09:33:27;;;;;;;6.87;6.07;;;34.90;53.90;;;;;;4979919;28;20614;-79
2021/07/20 09:36:17;;;;;;;7.93;6.80;;;34.70;53.60;;;;;;4981467;28;20583;-79
2021/07/20 09:38:55;;;;;;;7.73;6.50;;;34.80;54.10;;;;;;4985101;28;20573;-80
2021/07/20 09:41:49;;;;;;;6.30;5.70;;;35.10;54.60;;;;;;4987731;28;21032;-79
2021/07/20 09:44:23;;;;;;;5.80;5.20;;;35.60;55.00;;;;;;4989639;28;20633;-79
2021/07/20 09:46:58;;;;;;;6.40;5.07;;;36.30;55.10;;;;;;4992915;28;20575;-79
2021/07/20 09:50:02;;;;;;;6.80;6.10;;;37.00;54.80;;;;;;4988516;28;20590;-79
2021/07/20 09:52:37;;;;;;;7.70;5.50;;;37.80;54.50;;;;;;4987573;28;20606;-79
2021/07/20 09:55:48;;;;;;;7.13;5.30;;;38.50;53.10;;;;;;4989415;28;20594;-80
2021/07/20 09:58:33;;;;;;;5.97;5.47;;;39.20;52.80;;;;;;4934324;28;20602;-80
2021/07/20 10:01:29;;;;;;;5.30;4.90;;;39.60;51.40;;;;;;4985685;28;20654;-79
2021/07/20 10:04:08;;;;;;;7.20;6.50;;;39.40;49.20;;;;;;4977613;28;20598;-79
2021/07/20 10:06:55;;;;;;;6.23;5.53;;;38.60;47.40;;;;;;4987352;28;20563;-79
2021/07/20 10:09:29;;;;;;;8.60;7.70;;;37.70;47.70;;;;;;4987898;28;20614;-79
2021/07/20 10:12:08;;;;;;;8.03;6.83;;;36.70;47.70;;;;;;4989496;28;20569;-79
2021/07/20 10:14:45;;;;;;;6.53;5.80;;;36.00;48.30;;;;;;4990700;28;20581;-79
2021/07/20 10:17:25;;;;;;;6.67;5.80;;;35.50;49.10;;;;;;4991018;28;20584;-80
2021/07/20 10:20:20;;;;;;;7.00;5.77;;;35.00;48.90;;;;;;4987043;28;20585;-79
2021/07/20 10:22:48;;;;;;;6.20;5.60;;;34.60;49.60;;;;;;4984088;28;20649;-79
2021/07/20 10:25:27;;;;;;;7.20;6.50;;;34.20;49.50;;;;;;4974360;28;20601;-79
2021/07/20 10:28:08;;;;;;;6.70;6.10;;;33.90;49.70;;;;;;4986292;28;20573;-79
2021/07/20 10:30:38;;;;;;;7.20;6.50;;;33.60;50.40;;;;;;4974241;28;20599;-79
2021/07/20 10:33:10;;;;;;;7.40;6.70;;;33.30;50.60;;;;;;4957588;29;21343;-79
2021/07/20 10:35:43;;;;;;;7.00;6.30;;;33.00;50.50;;;;;;4957909;29;20642;-79
2021/07/20 10:38:16;;;;;;;7.70;6.00;;;32.60;50.50;;;;;;4961565;29;20622;-79
2021/07/20 10:40:43;;;;;;;7.10;6.40;;;32.20;50.60;;;;;;4972359;28;20639;-80
2021/07/20 10:43:22;;;;;;;6.57;5.97;;;31.80;50.80;;;;;;4973414;28;20675;-79
2021/07/20 10:45:49;;;;;;;6.93;6.33;;;31.40;51.30;;;;;;4958328;28;20949;-80
2021/07/20 10:48:21;;;;;;;9.60;6.73;;;31.00;51.50;;;;;;4958755;28;20655;-79
2021/07/20 10:51:05;;;;;;;6.23;5.63;;;30.80;52.80;;;;;;4962683;28;20977;-80
2021/07/20 10:53:53;;;;;;;7.40;5.97;;;30.90;53.30;;;;;;4959118;29;20596;-80
2021/07/20 10:56:40;;;;;;;7.50;6.50;;;31.30;54.20;;;;;;4969122;29;20893;-81
2021/07/20 10:59:19;;;;;;;7.50;6.77;;;31.80;54.40;;;;;;4966525;29;20610;-80
2021/07/20 11:02:02;;;;;;;7.80;7.00;;;32.40;54.90;;;;;;4963154;29;20660;-81
2021/07/20 11:04:52;;;;;;;6.50;5.10;;;32.90;54.30;;;;;;4964403;29;20632;-80
2021/07/20 11:07:43;;;;;;;7.03;6.33;;;33.40;54.40;;;;;;4963997;29;20576;-80
2021/07/20 11:10:10;;;;;;;8.00;7.10;;;33.80;53.30;;;;;;4983187;28;20595;-80
2021/07/20 11:12:39;;;;;;;7.83;5.60;;;34.20;53.20;;;;;;4979296;28;20685;-81
2021/07/20 11:15:05;;;;;;;7.03;6.07;;;34.20;52.30;;;;;;4972131;29;20592;-80
2021/07/20 11:17:33;;;;;;;8.00;6.90;;;34.30;52.20;;;;;;4969358;28;20579;-80
2021/07/20 11:20:02;;;;;;;6.40;5.80;;;34.40;51.60;;;;;;4968157;29;20602;-81
2021/07/20 11:22:29;;;;;;;6.40;5.80;;;34.50;51.80;;;;;;4963725;29;20698;-80
2021/07/20 11:24:55;;;;;;;7.33;6.63;;;34.70;51.50;;;;;;4960647;28;20615;-80
2021/07/20 11:27:23;;;;;;;8.33;7.30;;;34.80;51.40;;;;;;4962903;29;20606;-80
2021/07/20 11:29:54;;;;;;;6.33;5.23;;;35.10;51.50;;;;;;4976250;28;20680;-80
2021/07/20 11:32:30;;;;;;;6.77;5.03;;;35.30;50.80;;;;;;4960151;29;20722;-80
2021/07/20 11:35:12;;;;;;;5.63;5.13;;;35.20;50.10;;;;;;4959783;28;20574;-81
2021/07/20 11:37:42;;;;;;;6.87;6.10;;;35.00;49.60;;;;;;4960609;29;20587;-81
2021/07/20 11:40:09;;;;;;;7.60;6.50;;;34.50;48.80;;;;;;4961305;29;20640;-81
2021/07/20 11:42:44;;;;;;;7.00;6.30;;;34.10;48.60;;;;;;4959491;29;20651;-80
2021/07/20 11:45:12;;;;;;;7.40;6.70;;;33.60;49.00;;;;;;4967256;29;20624;-82
2021/07/20 11:47:57;;;;;;;7.73;6.40;;;33.40;49.70;;;;;;4981903;28;20583;-82
2021/07/20 11:50:34;;;;;;;8.43;5.50;;;33.20;50.20;;;;;;4978462;28;20609;-82
2021/07/20 11:53:19;;;;;;;6.73;5.83;;;33.20;51.20;;;;;;4968041;28;21128;-83
2021/07/20 11:55:59;;;;;;;5.63;5.13;;;33.30;51.20;;;;;;4967981;28;20590;-82
2021/07/20 11:58:57;;;;;;;5.73;5.17;;;33.40;49.70;;;;;;4968070;28;20654;-80
2021/07/20 12:01:50;;;;;;;5.83;5.23;;;33.50;51.30;;;;;;4974053;28;20601;-81
2021/07/20 12:04:35;;;;;;;5.53;5.03;;;33.70;51.00;;;;;;4978524;28;20632;-81
2021/07/20 12:07:20;;;;;;;5.87;5.37;;;33.70;50.10;;;;;;4989583;28;20642;-82
2021/07/20 12:09:54;;;;;;;8.67;6.90;;;33.60;49.70;;;;;;4974907;28;20585;-82
2021/07/20 12:12:27;;;;;;;6.90;5.63;;;33.40;49.90;;;;;;4947933;29;20975;-82
2021/07/20 12:14:54;;;;;;;6.77;5.47;;;33.40;50.00;;;;;;4954041;29;20574;-82
2021/07/20 12:17:31;;;;;;;6.60;5.50;;;33.20;50.70;;;;;;4961985;29;20594;-81
2021/07/20 12:19:56;;;;;;;6.13;5.53;;;33.20;51.20;;;;;;4960667;29;20682;-82
2021/07/20 12:22:22;;;;;;;7.50;5.40;;;33.30;50.80;;;;;;4974101;29;20639;-83
2021/07/20 12:24:53;;;;;;;6.37;5.60;;;33.20;50.10;;;;;;4957045;29;20184;-82
2021/07/20 12:27:21;;;;;;;6.03;5.43;;;33.10;49.90;;;;;;4978992;28;20214;-83
2021/07/20 12:29:52;;;;;;;6.50;5.90;;;32.90;50.40;;;;;;4969055;28;20642;-83
2021/07/20 12:32:18;;;;;;;5.17;4.67;;;32.90;50.40;;;;;;4990550;28;20617;-82
2021/07/20 12:34:49;;;;;;;6.27;5.67;;;32.90;50.70;;;;;;4992093;28;20974;-83
2021/07/20 12:37:19;;;;;;;5.63;5.13;;;32.80;50.30;;;;;;4996267;28;20249;-82
2021/07/20 12:39:47;;;;;;;6.03;5.43;;;32.80;50.40;;;;;;4993648;28;20717;-82
2021/07/20 12:42:12;;;;;;;6.03;5.43;;;32.80;50.50;;;;;;4991478;28;20625;-83
2021/07/20 12:44:38;;;;;;;6.00;5.40;;;32.80;49.90;;;;;;4987775;28;20609;-83
2021/07/20 12:47:07;;;;;;;6.57;5.90;;;32.60;49.80;;;;;;4958362;28;20189;-83
2021/07/20 12:49:35;;;;;;;5.67;5.07;;;32.50;49.90;;;;;;4970262;28;20249;-82
2021/07/20 12:52:01;;;;;;;7.43;6.33;;;32.30;49.70;;;;;;4948238;29;20699;-82
2021/07/20 12:54:37;;;;;;;5.67;5.00;;;32.10;49.40;;;;;;4963090;28;20628;-82
2021/07/20 12:57:04;;;;;;;7.07;5.30;;;31.80;50.00;;;;;;4974100;28;20239;-82
2021/07/20 12:59:38;;;;;;;5.93;5.27;;;31.60;49.40;;;;;;4970557;28;21736;-82
2021/07/20 13:02:07;;;;;;;7.57;6.20;;;31.40;49.20;;;;;;4989844;28;20726;-81
2021/07/20 13:04:34;;;;;;;6.10;5.03;;;31.10;49.00;;;;;;4965447;28;20590;-82
2021/07/20 13:07:01;;;;;;;5.33;4.83;;;30.80;49.40;;;;;;4981505;28;20582;-82
2021/07/20 13:09:27;;;;;;;6.43;4.50;;;30.60;49.50;;;;;;4989452;28;20603;-82
2021/07/20 13:11:54;;;;;;;5.63;5.13;;;30.40;49.60;;;;;;4972340;28;20594;-82
2021/07/20 13:14:21;;;;;;;6.23;5.10;;;30.20;49.80;;;;;;4966858;28;20638;-82